createdAt,value
2022-09-17T01:27:58.503Z,8.80
2022-09-17T01:30:56.240Z,8.80
2022-09-17T01:33:53.321Z,8.80
2022-09-17T01:36:26.710Z,8.90
2022-09-17T01:39:11.188Z,8.90
2022-09-17T01:41:48.945Z,8.90
2022-09-17T01:44:29.816Z,8.80
2022-09-17T01:47:07.250Z,8.90
2022-09-17T01:49:37.994Z,8.90
2022-09-17T01:52:06.839Z,8.90
2022-09-17T01:54:49.300Z,8.90
2022-09-17T01:57:33.200Z,8.90
2022-09-17T02:00:17.268Z,9.00
2022-09-17T02:02:50.580Z,8.90
2022-09-17T02:05:50.029Z,8.90
2022-09-17T02:08:19.531Z,8.90
2022-09-17T02:10:57.603Z,8.90
2022-09-17T02:13:43.302Z,8.90
2022-09-17T02:16:39.528Z,8.90
2022-09-17T02:19:16.764Z,8.90
2022-09-17T02:22:08.576Z,8.80
2022-09-17T02:24:53.917Z,8.80
2022-09-17T02:27:32.738Z,8.80
2022-09-17T02:29:59.615Z,8.80
2022-09-17T02:32:26.527Z,8.80
2022-09-17T02:34:53.481Z,8.80
2022-09-17T02:37:20.451Z,8.70
2022-09-17T02:39:47.592Z,8.80
2022-09-17T02:42:33.755Z,8.80
2022-09-17T02:45:05.918Z,8.80
2022-09-17T02:47:50.777Z,8.80
2022-09-17T02:50:41.608Z,8.80
2022-09-17T02:53:11.418Z,8.70
2022-09-17T02:55:51.270Z,8.80
2022-09-17T02:58:23.829Z,8.70
2022-09-17T03:00:51.271Z,8.70
2022-09-17T03:03:31.697Z,8.80
2022-09-17T03:06:00.213Z,8.80
2022-09-17T03:08:40.167Z,8.80
2022-09-17T03:11:09.179Z,8.80
2022-09-17T03:13:36.743Z,8.80
2022-09-17T03:16:04.509Z,8.90
2022-09-17T03:18:31.873Z,8.90
2022-09-17T03:20:59.004Z,8.90
2022-09-17T03:23:27.937Z,9.00
2022-09-17T03:25:55.396Z,9.00
2022-09-17T03:28:22.512Z,9.00
2022-09-17T03:30:49.444Z,9.00
2022-09-17T03:33:16.546Z,9.00
2022-09-17T03:35:44.555Z,9.00
2022-09-17T03:38:11.981Z,9.00
2022-09-17T03:40:39.121Z,9.00
2022-09-17T03:43:06.310Z,9.00
2022-09-17T03:45:33.461Z,9.00
2022-09-17T03:48:00.448Z,8.90
2022-09-17T03:50:27.328Z,8.90
2022-09-17T03:52:54.372Z,8.90
2022-09-17T03:55:21.341Z,8.90
2022-09-17T03:57:48.195Z,8.90
2022-09-17T04:00:17.529Z,8.90
2022-09-17T04:02:44.959Z,8.90
2022-09-17T04:05:12.128Z,8.90
2022-09-17T04:07:41.129Z,8.80
2022-09-17T04:10:09.053Z,8.90
2022-09-17T04:12:36.012Z,8.80
2022-09-17T04:15:03.204Z,8.80
2022-09-17T04:17:30.040Z,8.80
2022-09-17T04:19:56.919Z,8.90
2022-09-17T04:22:23.867Z,8.90
2022-09-17T04:24:50.783Z,8.80
2022-09-17T04:27:17.684Z,8.80
2022-09-17T04:29:44.551Z,8.80
2022-09-17T04:32:11.432Z,8.80
2022-09-17T04:34:38.304Z,8.80
2022-09-17T04:37:05.163Z,8.90
2022-09-17T04:39:32.069Z,8.80
2022-09-17T04:41:58.971Z,8.80
2022-09-17T04:44:25.824Z,8.90
2022-09-17T04:46:52.797Z,8.90
2022-09-17T04:49:19.682Z,8.90
2022-09-17T04:51:46.589Z,8.90
2022-09-17T04:54:14.710Z,8.90
2022-09-17T05:58:39.897Z,9.70
2022-09-17T06:01:07.148Z,9.70
2022-09-17T06:03:34.082Z,9.70
2022-09-17T06:06:01.087Z,9.70
2022-09-17T06:08:29.172Z,9.70
2022-09-17T06:11:01.600Z,9.70
2022-09-17T06:13:29.334Z,9.70
2022-09-17T06:15:56.240Z,9.70
2022-09-17T06:18:23.248Z,9.80
2022-09-17T06:21:08.121Z,9.70
2022-09-17T06:23:37.983Z,9.80
2022-09-17T06:26:06.173Z,9.80
2022-09-17T06:28:35.786Z,9.80
2022-09-17T06:31:06.414Z,9.90
2022-09-17T06:33:34.088Z,9.90
2022-09-17T06:36:03.667Z,10.00
2022-09-17T06:38:32.243Z,10.00
2022-09-17T06:40:59.415Z,10.10
2022-09-17T06:43:26.781Z,10.20
2022-09-17T06:46:01.263Z,10.30
2022-09-17T06:48:30.033Z,10.40
2022-09-17T06:51:01.857Z,10.50
2022-09-17T06:53:29.754Z,10.60
2022-09-17T06:56:06.058Z,10.60
2022-09-17T06:58:34.448Z,10.60
2022-09-17T07:01:01.856Z,10.70
2022-09-17T07:03:30.126Z,10.70
2022-09-17T07:05:58.134Z,10.70
2022-09-17T07:08:26.240Z,10.70
2022-09-17T07:10:57.098Z,10.80
2022-09-17T07:13:24.648Z,10.80
2022-09-17T07:15:59.921Z,10.80
2022-09-17T07:18:27.892Z,10.80
2022-09-17T07:20:55.613Z,10.90
2022-09-17T07:23:24.403Z,10.90
2022-09-17T07:25:59.369Z,10.90
2022-09-17T07:28:26.813Z,10.90
2022-09-17T07:30:54.506Z,11.00
2022-09-17T07:33:24.748Z,11.00
2022-09-17T07:35:59.924Z,11.10
2022-09-17T07:38:28.404Z,11.10
2022-09-17T07:41:00.426Z,11.00
2022-09-17T07:43:29.164Z,11.10
2022-09-17T07:45:59.596Z,11.00
2022-09-17T07:48:27.988Z,11.00
2022-09-17T07:50:55.520Z,11.10
2022-09-17T07:53:22.827Z,11.10
2022-09-17T07:55:54.490Z,11.20
2022-09-17T07:58:22.976Z,11.20
2022-09-17T08:00:50.175Z,11.40
2022-09-17T08:03:17.216Z,11.50
2022-09-17T08:05:44.073Z,11.80
2022-09-17T08:08:10.931Z,11.90
2022-09-17T08:10:37.845Z,12.00
2022-09-17T08:13:04.756Z,12.00
2022-09-17T08:15:31.642Z,12.00
2022-09-17T08:17:58.481Z,12.10
2022-09-17T08:20:26.318Z,12.20
2022-09-17T08:23:02.188Z,12.20
2022-09-17T08:25:29.117Z,12.30
